Knox, Maine
Current Conditions -  °F | °C
As of 11:55 AM on Thursday 23 Oct 2014 (Local Time) from KWVL Reporting Station
Overcast Overcast  
Wind Chill: 42°   Ceiling: 800
Heat Index: 48°   Visibility: 7mi
Dew Point: 45°   Wind: 16mph
Humidity: 87%   Direction: 30°NNE
Pressure: 29.84"   Gusts: 31mph
Location:  44.5814°N, 69.2435°W
Report Text: KWVL 231555Z 03014G27KT 7SM BKN008 OVC014 09/07 A2984 RMK AO1 P0016
Loading
Personal Weather Stations






























Interactive Weather Map
Tropical Storm Tracking
New forecast layout! Learn more

10-Day Weather Forecast

Advertisements
Track Severe Weather on mobile